Time;durP1;ratioP1;P1;durP2;ratioP2;P2;SDS_P1;SDS_P2;PMS_P1;PMS_P2;Temp;Humidity;BMP_temperature;BMP_pressure;BME280_temperature;BME280_humidity;BME280_pressure;Samples;Min_cycle;Max_cycle;Signal;HPM_P1;HPM_P2
2022/06/28 00:00:22;;;;;;;27.05;20.38;;;;;;;;;;5027261;28;19940;-80
2022/06/28 00:02:48;;;;;;;;;;;;;;;;;;5026689;28;20512;-79
2022/06/28 00:05:14;;;;;;;28.60;20.52;;;;;;;;;;5027970;28;19925;-79
2022/06/28 00:07:41;;;;;;;;;;;;;;;;;;5025470;28;20061;-78
2022/06/28 00:10:08;;;;;;;27.37;19.60;;;;;;;;;;5027881;28;20256;-80
2022/06/28 00:12:34;;;;;;;30.13;20.08;;;;;;;;;;5024323;28;20049;-75
2022/06/28 00:17:46;;;;;;;25.65;19.83;;;;;;;;;;4995057;28;20133;-79
2022/06/28 00:20:12;;;;;;;25.70;19.90;;;;;;;;;;5027441;28;20061;-79
2022/06/28 00:22:38;;;;;;;26.80;19.30;;;;;;;;;;5024669;28;20081;-78
2022/06/28 00:25:05;;;;;;;26.30;18.95;;;;;;;;;;5027743;28;20053;-79
2022/06/28 00:27:31;;;;;;;26.10;19.48;;;;;;;;;;5026822;28;20136;-77
2022/06/28 00:29:58;;;;;;;27.23;19.45;;;;;;;;;;5025628;28;20049;-79
2022/06/28 00:32:24;;;;;;;28.67;18.50;;;;;;;;;;5026118;28;20476;-80
2022/06/28 00:34:50;;;;;;;28.90;20.05;;;;;;;;;;5024837;28;20391;-80
2022/06/28 00:37:16;;;;;;;27.05;19.23;;;;;;;;;;5027588;28;20103;-80
2022/06/28 00:39:42;;;;;;;27.98;19.08;;;;;;;;;;5024698;28;20392;-80
2022/06/28 00:42:09;;;;;;;29.65;20.55;;;;;;;;;;5026253;28;20072;-79
2022/06/28 00:44:36;;;;;;;27.10;19.60;;;;;;;;;;5025550;28;20057;-80
2022/06/28 00:47:02;;;;;;;30.52;20.05;;;;;;;;;;5027066;28;20430;-80
2022/06/28 00:49:28;;;;;;;;;;;;;;;;;;5026977;28;20496;-79
2022/06/28 00:51:57;;;;;;;27.83;20.67;;;;;;;;;;5025718;28;19988;-79
2022/06/28 00:54:23;;;;;;;27.50;19.23;;;;;;;;;;5026394;28;20517;-79
2022/06/28 00:56:49;;;;;;;27.23;20.85;;;;;;;;;;5027157;28;20045;-81
2022/06/28 00:59:15;;;;;;;31.92;21.48;;;;;;;;;;5026623;28;20056;-75
2022/06/28 01:01:42;;;;;;;27.08;19.77;;;;;;;;;;5021392;28;20046;-80
2022/06/28 01:04:08;;;;;;;31.15;20.23;;;;;;;;;;5026272;28;20390;-80
2022/06/28 01:06:34;;;;;;;30.92;19.17;;;;;;;;;;5027930;28;20361;-81
2022/06/28 01:09:00;;;;;;;27.60;19.65;;;;;;;;;;5007609;28;20057;-81
2022/06/28 01:11:28;;;;;;;27.00;20.30;;;;;;;;;;5025049;28;20052;-78
2022/06/28 01:13:55;;;;;;;28.85;19.05;;;;;;;;;;5025046;28;20056;-77
2022/06/28 01:16:22;;;;;;;29.40;19.92;;;;;;;;;;5027484;28;20046;-79
2022/06/28 01:18:48;;;;;;;31.00;19.63;;;;;;;;;;5025814;28;20049;-78
2022/06/28 01:21:14;;;;;;;;;;;;;;;;;;5027412;28;20406;-75
2022/06/28 01:23:42;;;;;;;27.45;18.73;;;;;;;;;;5025067;28;19925;-78
2022/06/28 01:26:08;;;;;;;26.15;19.08;;;;;;;;;;5027269;28;20041;-79
2022/06/28 01:28:35;;;;;;;26.98;18.55;;;;;;;;;;5026072;28;20095;-80
2022/06/28 01:31:01;;;;;;;25.08;18.20;;;;;;;;;;5024225;28;20113;-78
2022/06/28 01:33:27;;;;;;;;;;;;;;;;;;5027061;28;20068;-78
2022/06/28 01:35:53;;;;;;;25.48;17.75;;;;;;;;;;5026264;28;19924;-77
2022/06/28 01:38:19;;;;;;;22.95;18.13;;;;;;;;;;5027351;28;20068;-78
2022/06/28 01:40:46;;;;;;;23.98;17.98;;;;;;;;;;5024008;28;20076;-74
2022/06/28 01:43:12;;;;;;;;;;;;;;;;;;5027574;28;20548;-77
2022/06/28 01:45:40;;;;;;;26.13;17.67;;;;;;;;;;5026583;28;20022;-77
2022/06/28 01:48:06;;;;;;;25.52;16.45;;;;;;;;;;5026604;28;20140;-77
2022/06/28 01:50:32;;;;;;;;;;;;;;;;;;5025536;28;20113;-75
2022/06/28 01:52:58;;;;;;;25.85;16.80;;;;;;;;;;5029974;28;20096;-79
2022/06/28 01:55:24;;;;;;;19.80;15.25;;;;;;;;;;5026324;28;20057;-76
2022/06/28 01:57:50;;;;;;;24.00;15.45;;;;;;;;;;5031140;28;20050;-77
2022/06/28 02:00:17;;;;;;;24.67;16.85;;;;;;;;;;5027446;28;20047;-75
2022/06/28 02:02:43;;;;;;;23.25;16.23;;;;;;;;;;5030503;28;20041;-76
2022/06/28 02:05:10;;;;;;;28.38;17.17;;;;;;;;;;5028266;28;20107;-75
2022/06/28 02:07:36;;;;;;;;;;;;;;;;;;5030874;28;20467;-75
2022/06/28 02:10:02;;;;;;;24.50;15.70;;;;;;;;;;5028355;28;20006;-73
2022/06/28 02:12:28;;;;;;;;;;;;;;;;;;5029074;28;20078;-75
2022/06/28 02:14:57;;;;;;;22.13;15.40;;;;;;;;;;5027650;28;20051;-74
2022/06/28 02:17:24;;;;;;;26.30;17.20;;;;;;;;;;5030085;28;20049;-75
2022/06/28 02:19:50;;;;;;;27.50;17.50;;;;;;;;;;5028306;28;20124;-73
2022/06/28 02:22:16;;;;;;;;;;;;;;;;;;5029489;28;20117;-73
2022/06/28 02:24:42;;;;;;;21.88;15.00;;;;;;;;;;5029314;28;20038;-74
2022/06/28 02:27:09;;;;;;;24.42;17.08;;;;;;;;;;5029482;28;20057;-74
2022/06/28 02:29:34;;;;;;;;;;;;;;;;;;5028122;28;20106;-75
2022/06/28 02:32:01;;;;;;;25.40;15.90;;;;;;;;;;5029582;28;19920;-75
2022/06/28 02:42:41;;;;;;;24.25;16.02;;;;;;;;;;5030025;28;20069;-76
2022/06/28 02:45:07;;;;;;;;;;;;;;;;;;5028760;28;20084;-74
2022/06/28 02:47:33;;;;;;;25.77;15.32;;;;;;;;;;5029690;28;19943;-73
2022/06/28 02:49:59;;;;;;;26.95;15.75;;;;;;;;;;5024857;28;20127;-74
2022/06/28 02:52:25;;;;;;;24.50;14.95;;;;;;;;;;5029482;28;20105;-75
2022/06/28 02:54:51;;;;;;;24.02;14.85;;;;;;;;;;5027729;28;22178;-74
2022/06/28 02:57:18;;;;;;;27.83;15.07;;;;;;;;;;5026791;28;20053;-74
2022/06/28 02:59:44;;;;;;;26.50;16.50;;;;;;;;;;5029415;28;20105;-75
2022/06/28 03:02:10;;;;;;;23.85;16.27;;;;;;;;;;5026893;28;20052;-75
2022/06/28 03:04:36;;;;;;;24.90;15.60;;;;;;;;;;5027512;28;20094;-75
2022/06/28 03:07:02;;;;;;;25.05;17.10;;;;;;;;;;5026903;28;20068;-73
2022/06/28 03:09:28;;;;;;;28.00;16.30;;;;;;;;;;5027826;28;20119;-76
2022/06/28 03:11:54;;;;;;;25.08;16.00;;;;;;;;;;5028551;28;20057;-73
2022/06/28 03:14:20;;;;;;;30.20;17.27;;;;;;;;;;5026151;28;20160;-76
2022/06/28 03:16:46;;;;;;;24.48;16.20;;;;;;;;;;5027889;28;20438;-77
2022/06/28 03:19:12;;;;;;;24.48;17.52;;;;;;;;;;5026752;28;20164;-75
2022/06/28 03:21:39;;;;;;;27.73;16.90;;;;;;;;;;5028554;28;20065;-73
2022/06/28 03:24:05;;;;;;;23.35;16.73;;;;;;;;;;5026967;28;20081;-75
2022/06/28 03:26:31;;;;;;;25.27;17.63;;;;;;;;;;5027603;28;20136;-74
2022/06/28 03:28:57;;;;;;;27.55;18.17;;;;;;;;;;5026865;28;20046;-74
2022/06/28 03:31:23;;;;;;;26.63;17.08;;;;;;;;;;5028420;28;20154;-78
2022/06/28 03:33:49;;;;;;;25.05;16.60;;;;;;;;;;5027346;28;20061;-75
2022/06/28 03:36:15;;;;;;;26.40;17.40;;;;;;;;;;5026907;28;21789;-76
2022/06/28 03:38:41;;;;;;;25.73;18.40;;;;;;;;;;5026544;28;20494;-75
2022/06/28 03:41:07;;;;;;;24.05;16.75;;;;;;;;;;5027388;28;20470;-75
2022/06/28 03:43:33;;;;;;;29.05;17.95;;;;;;;;;;5027338;28;20076;-75
2022/06/28 03:45:59;;;;;;;25.92;17.65;;;;;;;;;;5028560;28;20134;-74
2022/06/28 03:48:25;;;;;;;29.67;16.58;;;;;;;;;;5026586;28;20060;-74
2022/06/28 03:50:51;;;;;;;24.80;16.52;;;;;;;;;;5027582;28;20046;-75
2022/06/28 03:53:17;;;;;;;24.52;16.55;;;;;;;;;;5027537;28;20595;-75
2022/06/28 03:55:43;;;;;;;26.30;16.75;;;;;;;;;;5028491;28;20107;-77
2022/06/28 03:58:09;;;;;;;23.73;16.73;;;;;;;;;;5025936;28;20056;-75
2022/06/28 04:00:35;;;;;;;27.88;17.10;;;;;;;;;;5025034;28;20104;-75
2022/06/28 04:03:02;;;;;;;22.90;17.15;;;;;;;;;;5027061;28;20166;-74
2022/06/28 04:05:29;;;;;;;24.88;16.88;;;;;;;;;;5023522;28;20179;-74
2022/06/28 04:07:55;;;;;;;26.33;16.95;;;;;;;;;;5027498;28;20077;-75
2022/06/28 04:10:21;;;;;;;25.90;17.30;;;;;;;;;;5025969;28;20124;-75
2022/06/28 04:12:47;;;;;;;27.98;16.63;;;;;;;;;;5028351;28;20103;-76
2022/06/28 04:15:13;;;;;;;25.02;17.40;;;;;;;;;;5024865;28;20330;-75
2022/06/28 04:17:39;;;;;;;26.65;16.75;;;;;;;;;;5028691;28;20045;-75
2022/06/28 04:20:05;;;;;;;25.20;15.52;;;;;;;;;;5025763;28;20041;-75
2022/06/28 04:22:33;;;;;;;20.88;15.48;;;;;;;;;;5025969;28;20048;-75
2022/06/28 04:24:59;;;;;;;22.55;15.30;;;;;;;;;;5027670;28;20120;-74
2022/06/28 04:27:25;;;;;;;24.83;16.38;;;;;;;;;;5026573;28;20389;-75
2022/06/28 04:29:51;;;;;;;26.40;15.65;;;;;;;;;;5025439;28;20065;-75
2022/06/28 04:32:17;;;;;;;23.80;15.40;;;;;;;;;;5028091;28;20045;-74
2022/06/28 04:34:43;;;;;;;25.38;15.30;;;;;;;;;;5027441;28;20119;-76
2022/06/28 04:37:09;;;;;;;23.80;15.45;;;;;;;;;;5027752;28;20426;-75
2022/06/28 04:39:35;;;;;;;22.63;14.50;;;;;;;;;;5026575;28;20509;-75
2022/06/28 04:42:02;;;;;;;20.35;13.60;;;;;;;;;;5028142;28;20117;-76
2022/06/28 04:44:29;;;;;;;22.85;14.30;;;;;;;;;;5026650;28;20057;-77
2022/06/28 04:46:55;;;;;;;25.15;14.02;;;;;;;;;;5027086;28;20049;-75
2022/06/28 04:49:21;;;;;;;;;;;;;;;;;;5027193;28;20044;-74
2022/06/28 04:51:47;;;;;;;21.33;12.82;;;;;;;;;;5026530;28;20185;-75
2022/06/28 04:54:13;;;;;;;21.63;13.05;;;;;;;;;;5025717;28;20114;-74
2022/06/28 04:56:39;;;;;;;22.08;13.07;;;;;;;;;;5026825;28;20052;-74
2022/06/28 04:59:05;;;;;;;21.50;13.10;;;;;;;;;;5027686;28;20111;-75
2022/06/28 05:01:31;;;;;;;23.63;13.65;;;;;;;;;;5024590;28;20049;-73
2022/06/28 05:03:57;;;;;;;23.27;12.80;;;;;;;;;;5025064;28;20163;-78
2022/06/28 05:06:23;;;;;;;21.05;12.43;;;;;;;;;;5025726;28;20075;-74
2022/06/28 05:08:49;;;;;;;24.40;13.45;;;;;;;;;;5025563;28;20045;-74
2022/06/28 05:11:15;;;;;;;27.40;12.88;;;;;;;;;;5023017;28;20033;-74
2022/06/28 05:13:41;;;;;;;20.55;12.88;;;;;;;;;;5024259;28;20056;-75
2022/06/28 05:16:07;;;;;;;24.48;11.60;;;;;;;;;;5023246;28;20113;-74
2022/06/28 05:18:35;;;;;;;22.95;12.63;;;;;;;;;;5024634;28;20610;-73
2022/06/28 05:21:01;;;;;;;24.40;12.80;;;;;;;;;;5036489;28;20056;-74
2022/06/28 05:23:27;;;;;;;22.63;12.77;;;;;;;;;;5021797;28;20115;-75
2022/06/28 05:25:54;;;;;;;20.27;12.30;;;;;;;;;;5003148;28;20446;-74
2022/06/28 05:28:20;;;;;;;20.35;12.25;;;;;;;;;;5029181;28;20412;-73
2022/06/28 05:30:46;;;;;;;;;;;;;;;;;;5025991;28;20049;-74
2022/06/28 05:33:12;;;;;;;20.75;12.85;;;;;;;;;;5026406;28;19929;-75
2022/06/28 05:35:38;;;;;;;21.95;11.70;;;;;;;;;;5030113;28;20050;-79
2022/06/28 05:38:04;;;;;;;22.15;11.80;;;;;;;;;;5029342;28;20164;-77
2022/06/28 05:40:30;;;;;;;23.60;12.38;;;;;;;;;;5027661;28;20041;-80
2022/06/28 05:42:56;;;;;;;23.40;11.32;;;;;;;;;;5028245;28;20099;-80
2022/06/28 05:45:23;;;;;;;22.63;12.45;;;;;;;;;;5026954;28;20080;-80
2022/06/28 05:47:49;;;;;;;19.17;11.50;;;;;;;;;;5028913;28;20056;-82
2022/06/28 05:50:16;;;;;;;22.08;11.32;;;;;;;;;;5025341;28;20048;-80
2022/06/28 05:52:42;;;;;;;20.40;10.52;;;;;;;;;;5021724;28;20038;-81
2022/06/28 05:55:08;;;;;;;20.55;9.88;;;;;;;;;;5029088;28;20053;-78
2022/06/28 05:57:34;;;;;;;20.88;9.75;;;;;;;;;;5029122;28;20136;-78
2022/06/28 06:00:00;;;;;;;22.20;9.82;;;;;;;;;;5028183;28;20049;-79
2022/06/28 06:02:26;;;;;;;20.65;11.43;;;;;;;;;;5027552;28;20144;-76
2022/06/28 06:04:54;;;;;;;21.83;11.63;;;;;;;;;;5028500;28;20061;-75
2022/06/28 06:07:20;;;;;;;21.38;10.05;;;;;;;;;;5031060;28;20121;-76
2022/06/28 06:09:46;;;;;;;23.92;11.57;;;;;;;;;;5026952;28;20045;-76
2022/06/28 06:12:13;;;;;;;20.90;11.77;;;;;;;;;;5026961;28;20068;-75
2022/06/28 06:14:39;;;;;;;22.92;12.77;;;;;;;;;;5026647;28;20060;-76
2022/06/28 06:17:05;;;;;;;26.73;12.18;;;;;;;;;;5027382;28;20060;-74
2022/06/28 06:19:31;;;;;;;21.52;10.98;;;;;;;;;;5027024;28;20052;-76
2022/06/28 06:21:57;;;;;;;20.95;11.52;;;;;;;;;;5027874;28;20101;-77
2022/06/28 06:24:23;;;;;;;20.33;11.35;;;;;;;;;;5027712;28;20049;-77
2022/06/28 06:26:49;;;;;;;25.05;12.02;;;;;;;;;;5026204;28;20049;-77
2022/06/28 06:29:15;;;;;;;21.85;10.82;;;;;;;;;;5027794;28;20052;-76
2022/06/28 06:31:41;;;;;;;19.33;10.55;;;;;;;;;;5025408;28;20571;-76
2022/06/28 06:34:07;;;;;;;19.45;10.43;;;;;;;;;;5010060;28;20156;-81
2022/06/28 06:36:34;;;;;;;23.30;10.63;;;;;;;;;;5024985;28;20231;-77
2022/06/28 06:39:00;;;;;;;22.38;9.70;;;;;;;;;;5028879;28;20068;-75
2022/06/28 06:41:26;;;;;;;22.08;9.43;;;;;;;;;;5028399;28;20095;-76
2022/06/28 06:43:53;;;;;;;22.80;9.32;;;;;;;;;;5027347;28;20057;-79
2022/06/28 06:46:20;;;;;;;18.92;8.80;;;;;;;;;;5028956;28;20057;-76
2022/06/28 06:48:46;;;;;;;19.40;8.48;;;;;;;;;;5028242;28;20045;-77
2022/06/28 06:51:12;;;;;;;16.33;8.10;;;;;;;;;;5027150;28;20087;-78
2022/06/28 06:53:38;;;;;;;18.58;7.65;;;;;;;;;;5026282;28;20435;-76
2022/06/28 06:56:04;;;;;;;16.80;7.28;;;;;;;;;;5027035;28;20037;-76
2022/06/28 06:58:30;;;;;;;;;;;;;;;;;;5020860;28;20161;-80
2022/06/28 07:00:57;;;;;;;17.90;7.78;;;;;;;;;;5029310;28;20374;-76
2022/06/28 07:03:23;;;;;;;16.30;7.75;;;;;;;;;;5031254;28;20472;-76
2022/06/28 07:05:50;;;;;;;21.92;7.95;;;;;;;;;;5035079;28;20077;-76
2022/06/28 07:08:16;;;;;;;17.70;7.25;;;;;;;;;;5035855;28;20072;-83
2022/06/28 07:10:42;;;;;;;19.40;7.50;;;;;;;;;;5031660;28;20046;-85
2022/06/28 07:13:08;;;;;;;19.60;7.15;;;;;;;;;;5030448;28;20045;-83
2022/06/28 07:15:34;;;;;;;17.38;7.43;;;;;;;;;;5030080;28;20041;-78
2022/06/28 07:18:00;;;;;;;23.38;7.75;;;;;;;;;;5026281;28;20049;-79
2022/06/28 07:20:27;;;;;;;13.77;7.10;;;;;;;;;;5026789;28;20093;-82
2022/06/28 07:22:53;;;;;;;16.98;7.28;;;;;;;;;;5026218;28;20060;-83
2022/06/28 07:25:19;;;;;;;19.77;7.00;;;;;;;;;;5026724;28;20046;-79
2022/06/28 07:27:45;;;;;;;18.75;6.57;;;;;;;;;;5027388;28;20128;-76
2022/06/28 07:30:11;;;;;;;16.63;6.30;;;;;;;;;;5027435;28;20049;-83
2022/06/28 07:32:37;;;;;;;17.13;6.18;;;;;;;;;;5027150;28;20049;-82
2022/06/28 07:35:04;;;;;;;19.25;6.05;;;;;;;;;;5024935;28;20231;-78
2022/06/28 07:37:30;;;;;;;16.90;5.47;;;;;;;;;;5026933;28;20120;-78
2022/06/28 07:39:56;;;;;;;;;;;;;;;;;;5024845;28;20041;-82
2022/06/28 07:42:22;;;;;;;16.20;5.18;;;;;;;;;;5027609;28;19921;-84
2022/06/28 07:44:48;;;;;;;13.77;4.47;;;;;;;;;;5025105;28;20128;-84
2022/06/28 07:47:15;;;;;;;16.85;4.68;;;;;;;;;;5027046;28;20140;-84
2022/06/28 07:52:35;;;;;;;17.60;4.63;;;;;;;;;;5026734;28;19948;-77
2022/06/28 07:55:01;;;;;;;13.27;4.07;;;;;;;;;;5024450;28;20045;-83
2022/06/28 07:57:27;;;;;;;12.70;3.20;;;;;;;;;;5026360;28;20331;-86
2022/06/28 07:59:54;;;;;;;15.57;3.88;;;;;;;;;;5024552;28;20643;-81
2022/06/28 08:02:20;;;;;;;;;;;;;;;;;;5025226;28;20094;-82
2022/06/28 08:04:46;;;;;;;12.65;3.20;;;;;;;;;;5023713;28;19978;-87
2022/06/28 08:07:12;;;;;;;13.88;3.40;;;;;;;;;;5006993;28;20067;-83
2022/06/28 08:09:38;;;;;;;12.55;2.92;;;;;;;;;;5024688;28;20113;-86
2022/06/28 08:12:05;;;;;;;12.23;3.58;;;;;;;;;;5026138;28;20064;-84
2022/06/28 08:14:31;;;;;;;13.00;3.38;;;;;;;;;;5021614;28;20459;-80
2022/06/28 08:16:57;;;;;;;;;;;;;;;;;;5021554;28;20470;-87
2022/06/28 08:19:24;;;;;;;10.93;3.22;;;;;;;;;;5037212;28;19940;-86
2022/06/28 08:21:51;;;;;;;11.50;3.05;;;;;;;;;;5026487;28;20046;-81
2022/06/28 08:24:17;;;;;;;12.20;3.50;;;;;;;;;;5026703;28;20107;-80
2022/06/28 08:26:44;;;;;;;16.58;3.53;;;;;;;;;;5031731;28;20101;-87
2022/06/28 08:29:10;;;;;;;11.20;3.10;;;;;;;;;;5028901;28;20128;-81
2022/06/28 08:31:36;;;;;;;14.48;3.45;;;;;;;;;;5024064;28;20068;-85
2022/06/28 08:34:02;;;;;;;;;;;;;;;;;;5026105;28;20041;-79
2022/06/28 08:36:28;;;;;;;15.15;3.17;;;;;;;;;;5026372;28;19928;-82
2022/06/28 08:38:54;;;;;;;15.15;3.08;;;;;;;;;;5025980;28;20095;-87
2022/06/28 08:41:21;;;;;;;10.30;2.60;;;;;;;;;;5027302;28;20154;-84
2022/06/28 08:43:47;;;;;;;;;;;;;;;;;;5024712;28;20562;-76
2022/06/28 08:46:13;;;;;;;11.85;2.50;;;;;;;;;;5026158;28;19971;-81
2022/06/28 08:48:43;;;;;;;13.32;2.92;;;;;;;;;;5025941;28;20049;-79
2022/06/28 08:51:10;;;;;;;12.10;2.70;;;;;;;;;;5026160;28;20132;-78
2022/06/28 08:53:41;;;;;;;11.93;3.28;;;;;;;;;;5025543;28;20238;-80
2022/06/28 08:56:09;;;;;;;13.00;2.78;;;;;;;;;;5025741;28;20147;-75
2022/06/28 08:58:36;;;;;;;10.55;2.90;;;;;;;;;;5026173;28;20072;-81
2022/06/28 09:01:02;;;;;;;11.52;3.10;;;;;;;;;;5029465;28;20041;-82
2022/06/28 09:03:28;;;;;;;10.90;2.40;;;;;;;;;;5030020;28;20099;-79
2022/06/28 09:05:54;;;;;;;12.88;2.72;;;;;;;;;;5028712;28;20109;-79
2022/06/28 09:08:21;;;;;;;15.40;2.45;;;;;;;;;;5030307;28;20067;-81
2022/06/28 09:10:47;;;;;;;11.55;2.60;;;;;;;;;;5029510;28;20458;-78
2022/06/28 09:13:14;;;;;;;14.75;2.90;;;;;;;;;;5030136;28;20504;-79
2022/06/28 09:15:48;;;;;;;14.18;2.88;;;;;;;;;;5028544;28;20420;-75
2022/06/28 09:18:14;;;;;;;12.15;2.90;;;;;;;;;;5029748;28;20136;-74
2022/06/28 09:20:40;;;;;;;;;;;;;;;;;;5030288;28;20547;-83
2022/06/28 09:23:25;;;;;;;15.70;3.25;;;;;;;;;;5027681;28;19929;-81
2022/06/28 09:25:51;;;;;;;10.82;2.50;;;;;;;;;;5026544;28;20120;-76
2022/06/28 09:28:26;;;;;;;14.73;2.65;;;;;;;;;;5028091;28;20527;-76
2022/06/28 09:30:52;;;;;;;10.80;2.67;;;;;;;;;;5023462;28;20041;-79
2022/06/28 09:33:26;;;;;;;14.65;3.95;;;;;;;;;;5023778;28;20086;-81
2022/06/28 09:35:52;;;;;;;16.52;2.85;;;;;;;;;;5028480;28;20053;-81
2022/06/28 09:38:32;;;;;;;12.18;2.78;;;;;;;;;;5029597;28;20515;-80
2022/06/28 09:41:00;;;;;;;8.43;2.40;;;;;;;;;;5029012;28;20106;-81
2022/06/28 09:43:35;;;;;;;15.60;2.70;;;;;;;;;;5028309;28;20088;-80
2022/06/28 09:46:05;;;;;;;12.65;3.05;;;;;;;;;;5028689;28;20410;-81
2022/06/28 09:48:37;;;;;;;12.40;2.63;;;;;;;;;;5025729;28;20465;-75
2022/06/28 09:51:04;;;;;;;12.63;2.95;;;;;;;;;;5009427;28;20076;-73
2022/06/28 09:53:33;;;;;;;10.55;2.53;;;;;;;;;;5022859;28;20072;-73
2022/06/28 09:56:01;;;;;;;12.80;2.70;;;;;;;;;;5026892;28;20116;-74
2022/06/28 09:58:27;;;;;;;12.13;3.10;;;;;;;;;;5022832;28;20140;-73
2022/06/28 10:00:54;;;;;;;11.63;3.10;;;;;;;;;;5026136;28;20151;-73
2022/06/28 10:03:20;;;;;;;10.23;2.60;;;;;;;;;;5028038;28;20124;-75
2022/06/28 10:05:46;;;;;;;;;;;;;;;;;;5028154;28;20049;-74
2022/06/28 10:08:12;;;;;;;12.23;2.83;;;;;;;;;;5028248;28;21359;-78
2022/06/28 10:10:40;;;;;;;;;;;;;;;;;;5019012;28;20541;-73
2022/06/28 10:15:57;;;;;;;13.02;2.95;;;;;;;;;;5022488;28;20108;-72
2022/06/28 10:18:27;;;;;;;11.55;3.10;;;;;;;;;;5023451;28;20386;-74
2022/06/28 10:20:53;;;;;;;16.42;3.30;;;;;;;;;;5027702;28;20452;-73
2022/06/28 10:23:25;;;;;;;10.88;2.95;;;;;;;;;;5029192;28;20107;-72
2022/06/28 10:26:06;;;;;;;12.93;2.85;;;;;;;;;;5029904;28;20055;-73
2022/06/28 10:28:41;;;;;;;10.38;2.92;;;;;;;;;;5028602;28;20076;-74
2022/06/28 10:31:25;;;;;;;13.00;3.08;;;;;;;;;;5023510;28;20500;-81
2022/06/28 10:33:55;;;;;;;10.95;2.88;;;;;;;;;;5026323;28;20541;-80
2022/06/28 10:36:23;;;;;;;13.75;3.33;;;;;;;;;;5029128;28;20041;-80
2022/06/28 10:39:04;;;;;;;11.85;2.70;;;;;;;;;;5021801;28;20119;-78
2022/06/28 10:41:40;;;;;;;12.15;2.75;;;;;;;;;;5024593;28;20037;-84
2022/06/28 10:44:08;;;;;;;11.82;2.85;;;;;;;;;;5027534;28;21019;-74
2022/06/28 10:46:34;;;;;;;13.95;3.10;;;;;;;;;;5026815;28;20065;-73
2022/06/28 10:49:00;;;;;;;;;;;;;;;;;;5029218;28;20103;-78
2022/06/28 10:51:26;;;;;;;12.98;3.20;;;;;;;;;;5030470;28;19925;-78
2022/06/28 10:53:57;;;;;;;12.13;2.85;;;;;;;;;;5025986;28;20350;-75
2022/06/28 10:56:24;;;;;;;14.38;3.20;;;;;;;;;;5027421;28;20123;-79
2022/06/28 10:58:54;;;;;;;11.65;2.80;;;;;;;;;;5026141;28;20050;-76
2022/06/28 11:01:40;;;;;;;16.00;3.53;;;;;;;;;;5026711;28;20086;-77
2022/06/28 11:04:18;;;;;;;13.52;2.50;;;;;;;;;;5025382;28;20060;-75
2022/06/28 11:06:50;;;;;;;16.98;3.55;;;;;;;;;;5010153;28;20049;-80
2022/06/28 11:09:19;;;;;;;9.70;2.78;;;;;;;;;;5013311;28;20049;-77
2022/06/28 11:12:04;;;;;;;13.00;2.97;;;;;;;;;;5028598;28;20060;-77
2022/06/28 11:14:32;;;;;;;13.43;2.60;;;;;;;;;;5026800;28;20456;-79
2022/06/28 11:16:59;;;;;;;14.00;2.95;;;;;;;;;;5027287;28;20046;-74
2022/06/28 11:19:25;;;;;;;12.63;3.15;;;;;;;;;;5025656;28;20514;-77
2022/06/28 11:21:55;;;;;;;14.98;3.00;;;;;;;;;;5026731;28;20053;-76
2022/06/28 11:24:24;;;;;;;10.98;3.30;;;;;;;;;;5026034;28;20144;-78
2022/06/28 11:29:35;;;;;;;10.35;2.60;;;;;;;;;;5026347;28;20440;-75
2022/06/28 11:32:01;;;;;;;;;;;;;;;;;;5024097;28;20065;-74
2022/06/28 11:34:27;;;;;;;13.00;2.67;;;;;;;;;;5027465;28;20333;-73
2022/06/28 11:36:57;;;;;;;11.00;2.50;;;;;;;;;;5026523;28;20045;-77
2022/06/28 11:39:24;;;;;;;11.98;2.60;;;;;;;;;;5027407;28;20048;-73
2022/06/28 11:41:51;;;;;;;12.73;2.92;;;;;;;;;;5025682;28;20098;-73
2022/06/28 11:44:18;;;;;;;13.40;2.85;;;;;;;;;;5034015;28;20462;-74
2022/06/28 11:46:46;;;;;;;11.45;2.88;;;;;;;;;;5027283;28;20053;-73
2022/06/28 11:49:12;;;;;;;15.13;3.00;;;;;;;;;;5024683;28;20386;-73
2022/06/28 11:51:43;;;;;;;11.80;2.90;;;;;;;;;;5028948;28;20120;-73
2022/06/28 11:54:10;;;;;;;12.30;2.80;;;;;;;;;;5040292;28;20102;-75
2022/06/28 11:56:43;;;;;;;14.23;3.38;;;;;;;;;;5027107;28;20139;-77
2022/06/28 11:59:09;;;;;;;11.10;2.70;;;;;;;;;;5018508;28;20478;-75
2022/06/28 12:01:35;;;;;;;;;;;;;;;;;;5022885;28;20456;-73
2022/06/28 12:04:02;;;;;;;13.15;2.70;;;;;;;;;;5022446;28;19941;-72
2022/06/28 12:06:29;;;;;;;15.35;2.90;;;;;;;;;;5023505;28;21840;-72
2022/06/28 12:08:59;;;;;;;16.75;3.00;;;;;;;;;;5030051;28;20106;-74
2022/06/28 12:11:34;;;;;;;10.50;2.83;;;;;;;;;;5036789;28;20197;-74
2022/06/28 12:14:03;;;;;;;8.93;2.60;;;;;;;;;;5024884;28;20048;-74
2022/06/28 12:16:34;;;;;;;10.85;2.63;;;;;;;;;;5030736;28;20113;-75
2022/06/28 12:19:00;;;;;;;14.93;2.90;;;;;;;;;;5029793;28;20045;-72
2022/06/28 12:21:28;;;;;;;9.73;2.35;;;;;;;;;;5031290;28;20124;-71
2022/06/28 12:23:54;;;;;;;10.10;2.47;;;;;;;;;;5023496;28;20052;-73
2022/06/28 12:26:21;;;;;;;14.35;3.10;;;;;;;;;;5033963;28;20061;-77
2022/06/28 12:28:47;;;;;;;6.85;2.20;;;;;;;;;;5030123;28;20452;-76
2022/06/28 12:31:14;;;;;;;10.18;2.53;;;;;;;;;;5033284;28;20405;-72
2022/06/28 12:33:40;;;;;;;;;;;;;;;;;;5031010;28;20492;-73
2022/06/28 12:36:06;;;;;;;12.73;2.40;;;;;;;;;;5033133;28;19940;-77
2022/06/28 12:38:32;;;;;;;;;;;;;;;;;;5032270;28;20056;-73
2022/06/28 12:40:58;;;;;;;11.02;2.40;;;;;;;;;;5026073;28;19921;-73
2022/06/28 12:43:24;;;;;;;11.23;2.50;;;;;;;;;;5025683;28;20111;-76
2022/06/28 12:45:50;;;;;;;;;;;;;;;;;;5024986;28;20065;-73
2022/06/28 12:48:16;;;;;;;12.15;2.83;;;;;;;;;;5024512;28;19921;-77
2022/06/28 12:50:42;;;;;;;;;;;;;;;;;;5011821;28;20119;-75
2022/06/28 12:53:08;;;;;;;12.82;2.45;;;;;;;;;;5024517;28;19921;-77
2022/06/28 12:55:34;;;;;;;10.85;2.50;;;;;;;;;;5024475;28;20095;-75
2022/06/28 12:58:01;;;;;;;10.80;2.47;;;;;;;;;;5025918;28;20067;-75
2022/06/28 13:00:27;;;;;;;11.82;2.80;;;;;;;;;;5025644;28;20120;-74
2022/06/28 13:02:53;;;;;;;;;;;;;;;;;;5028404;28;20200;-78
2022/06/28 13:05:21;;;;;;;12.82;2.45;;;;;;;;;;5028725;28;20068;-77
2022/06/28 13:07:47;;;;;;;14.73;2.50;;;;;;;;;;5045129;28;20038;-74
2022/06/28 13:10:16;;;;;;;10.68;2.92;;;;;;;;;;5032649;28;20046;-72
2022/06/28 13:12:42;;;;;;;;;;;;;;;;;;5036557;28;20083;-76
2022/06/28 13:15:08;;;;;;;11.77;2.30;;;;;;;;;;5029298;28;19955;-74
2022/06/28 13:17:35;;;;;;;11.60;2.50;;;;;;;;;;5035094;28;20088;-74
2022/06/28 13:20:02;;;;;;;;;;;;;;;;;;5024146;28;20042;-71
2022/06/28 13:22:28;;;;;;;12.73;2.50;;;;;;;;;;5024993;28;19921;-73
2022/06/28 13:24:54;;;;;;;;;;;;;;;;;;5020292;28;20377;-74
2022/06/28 13:27:20;;;;;;;9.98;2.30;;;;;;;;;;5018249;28;19921;-74
2022/06/28 13:29:46;;;;;;;11.60;2.30;;;;;;;;;;5023715;28;20107;-73
2022/06/28 13:32:12;;;;;;;;;;;;;;;;;;5021759;28;20140;-71
2022/06/28 13:34:38;;;;;;;6.82;1.83;;;;;;;;;;5012722;28;20017;-75
2022/06/28 13:37:05;;;;;;;9.52;2.05;;;;;;;;;;5025862;28;20050;-74
2022/06/28 13:39:31;;;;;;;11.93;2.35;;;;;;;;;;5024076;28;20483;-75
2022/06/28 13:41:57;;;;;;;11.88;2.53;;;;;;;;;;5024951;28;20164;-77
2022/06/28 13:44:24;;;;;;;;;;;;;;;;;;5024526;28;20195;-75
2022/06/28 13:46:50;;;;;;;10.50;2.27;;;;;;;;;;5024719;28;19936;-73
2022/06/28 13:49:18;;;;;;;7.45;2.08;;;;;;;;;;5018257;28;20300;-74
2022/06/28 13:51:44;;;;;;;7.72;1.92;;;;;;;;;;5027104;28;20041;-76
2022/06/28 13:54:11;;;;;;;;;;;;;;;;;;5014399;28;20208;-70
2022/06/28 13:56:37;;;;;;;9.90;2.40;;;;;;;;;;5028941;28;20613;-72
2022/06/28 13:59:03;;;;;;;;;;;;;;;;;;5029672;28;20079;-73
2022/06/28 14:01:30;;;;;;;10.40;2.30;;;;;;;;;;5027859;28;20011;-73
2022/06/28 14:03:55;;;;;;;;;;;;;;;;;;5029349;28;20046;-70
2022/06/28 14:06:22;;;;;;;9.32;2.28;;;;;;;;;;5022971;28;19940;-71
2022/06/28 14:08:48;;;;;;;12.07;2.20;;;;;;;;;;5010560;28;20128;-75
2022/06/28 14:11:14;;;;;;;;;;;;;;;;;;5036875;28;20105;-75
2022/06/28 14:13:41;;;;;;;7.00;2.20;;;;;;;;;;5023536;28;19925;-75
2022/06/28 14:16:07;;;;;;;9.40;2.35;;;;;;;;;;5029062;28;20121;-71
2022/06/28 14:18:34;;;;;;;9.38;2.10;;;;;;;;;;5026753;28;20556;-72
2022/06/28 14:21:02;;;;;;;;;;;;;;;;;;5029512;28;20056;-70
2022/06/28 14:23:28;;;;;;;11.48;2.17;;;;;;;;;;5027774;28;19933;-70
2022/06/28 14:25:54;;;;;;;10.88;2.17;;;;;;;;;;5029639;28;20134;-71
2022/06/28 14:28:20;;;;;;;6.80;1.98;;;;;;;;;;5028782;28;20062;-70
2022/06/28 14:30:46;;;;;;;9.82;2.13;;;;;;;;;;5032253;28;20045;-74
2022/06/28 14:33:13;;;;;;;;;;;;;;;;;;5034488;28;20174;-73
2022/06/28 14:35:39;;;;;;;11.82;2.15;;;;;;;;;;5034806;28;20003;-71
2022/06/28 14:38:06;;;;;;;8.70;1.98;;;;;;;;;;5026009;28;20874;-81
2022/06/28 14:40:32;;;;;;;;;;;;;;;;;;5027170;28;20204;-74
2022/06/28 14:42:59;;;;;;;8.98;2.63;;;;;;;;;;5028094;28;19921;-80
2022/06/28 14:45:27;;;;;;;8.18;1.98;;;;;;;;;;5027903;28;20107;-74
2022/06/28 14:47:53;;;;;;;6.63;1.90;;;;;;;;;;5026498;28;20053;-74
2022/06/28 14:50:19;;;;;;;;;;;;;;;;;;5026360;28;20502;-74
2022/06/28 14:52:48;;;;;;;9.35;2.47;;;;;;;;;;5027910;28;19978;-76
2022/06/28 14:55:14;;;;;;;7.90;2.00;;;;;;;;;;5032163;28;20443;-76
2022/06/28 14:57:40;;;;;;;;;;;;;;;;;;5036754;28;20052;-76